sensor_id;sensor_type;location;lat;lon;timestamp;P1;durP1;ratioP1;P2;durP2;ratioP2
37517;SDS011;23366;52.498;13.446;2023-07-22T00:00:54;5.55;;;3.83;;
37517;SDS011;23366;52.498;13.446;2023-07-22T00:03:20;4.78;;;3.65;;
37517;SDS011;23366;52.498;13.446;2023-07-22T00:05:45;7.80;;;4.03;;
37517;SDS011;23366;52.498;13.446;2023-07-22T00:08:11;4.25;;;3.35;;
37517;SDS011;23366;52.498;13.446;2023-07-22T00:10:40;7.88;;;4.22;;
37517;SDS011;23366;52.498;13.446;2023-07-22T00:13:06;7.35;;;4.03;;
37517;SDS011;23366;52.498;13.446;2023-07-22T00:15:32;4.03;;;3.63;;
37517;SDS011;23366;52.498;13.446;2023-07-22T00:17:57;5.18;;;4.10;;
37517;SDS011;23366;52.498;13.446;2023-07-22T00:20:23;5.20;;;3.72;;
37517;SDS011;23366;52.498;13.446;2023-07-22T00:22:50;5.28;;;4.13;;
37517;SDS011;23366;52.498;13.446;2023-07-22T00:25:16;6.47;;;4.22;;
37517;SDS011;23366;52.498;13.446;2023-07-22T00:27:42;6.03;;;4.53;;
37517;SDS011;23366;52.498;13.446;2023-07-22T00:30:08;5.57;;;3.92;;
37517;SDS011;23366;52.498;13.446;2023-07-22T00:32:34;5.70;;;4.70;;
37517;SDS011;23366;52.498;13.446;2023-07-22T00:35:02;5.88;;;4.57;;
37517;SDS011;23366;52.498;13.446;2023-07-22T00:37:30;6.43;;;4.95;;
37517;SDS011;23366;52.498;13.446;2023-07-22T00:39:56;6.43;;;4.57;;
37517;SDS011;23366;52.498;13.446;2023-07-22T00:42:21;4.45;;;3.70;;
37517;SDS011;23366;52.498;13.446;2023-07-22T00:44:47;6.18;;;3.60;;
37517;SDS011;23366;52.498;13.446;2023-07-22T00:47:12;6.53;;;4.63;;
37517;SDS011;23366;52.498;13.446;2023-07-22T00:49:38;10.82;;;4.30;;
37517;SDS011;23366;52.498;13.446;2023-07-22T00:52:04;6.03;;;4.47;;
37517;SDS011;23366;52.498;13.446;2023-07-22T00:54:30;5.10;;;4.07;;
37517;SDS011;23366;52.498;13.446;2023-07-22T00:56:56;6.53;;;4.45;;
37517;SDS011;23366;52.498;13.446;2023-07-22T00:59:22;5.10;;;4.18;;
37517;SDS011;23366;52.498;13.446;2023-07-22T01:01:49;6.90;;;5.22;;
37517;SDS011;23366;52.498;13.446;2023-07-22T01:04:14;6.60;;;4.47;;
37517;SDS011;23366;52.498;13.446;2023-07-22T01:06:44;7.95;;;5.13;;
37517;SDS011;23366;52.498;13.446;2023-07-22T01:09:10;8.93;;;4.30;;
37517;SDS011;23366;52.498;13.446;2023-07-22T01:11:35;6.30;;;4.40;;
37517;SDS011;23366;52.498;13.446;2023-07-22T01:14:01;6.65;;;4.00;;
37517;SDS011;23366;52.498;13.446;2023-07-22T01:16:28;5.07;;;3.75;;
37517;SDS011;23366;52.498;13.446;2023-07-22T01:18:54;6.93;;;3.90;;
37517;SDS011;23366;52.498;13.446;2023-07-22T01:21:23;5.63;;;4.45;;
37517;SDS011;23366;52.498;13.446;2023-07-22T01:23:49;5.38;;;4.60;;
37517;SDS011;23366;52.498;13.446;2023-07-22T01:26:15;5.32;;;4.35;;
37517;SDS011;23366;52.498;13.446;2023-07-22T01:28:43;5.38;;;4.00;;
37517;SDS011;23366;52.498;13.446;2023-07-22T01:31:08;4.93;;;4.43;;
37517;SDS011;23366;52.498;13.446;2023-07-22T01:33:34;6.78;;;4.30;;
37517;SDS011;23366;52.498;13.446;2023-07-22T01:36:00;6.10;;;4.22;;
37517;SDS011;23366;52.498;13.446;2023-07-22T01:38:26;5.20;;;4.00;;
37517;SDS011;23366;52.498;13.446;2023-07-22T01:40:52;5.28;;;4.25;;
37517;SDS011;23366;52.498;13.446;2023-07-22T01:43:17;6.75;;;4.50;;
37517;SDS011;23366;52.498;13.446;2023-07-22T01:45:43;5.57;;;3.75;;
37517;SDS011;23366;52.498;13.446;2023-07-22T01:48:08;5.55;;;3.95;;
37517;SDS011;23366;52.498;13.446;2023-07-22T01:50:34;6.38;;;4.13;;
37517;SDS011;23366;52.498;13.446;2023-07-22T01:52:59;4.93;;;4.22;;
37517;SDS011;23366;52.498;13.446;2023-07-22T01:55:24;6.32;;;4.25;;
37517;SDS011;23366;52.498;13.446;2023-07-22T01:57:50;5.30;;;4.68;;
37517;SDS011;23366;52.498;13.446;2023-07-22T02:00:16;8.98;;;4.55;;
37517;SDS011;23366;52.498;13.446;2023-07-22T02:02:41;5.05;;;3.80;;
37517;SDS011;23366;52.498;13.446;2023-07-22T02:05:07;4.05;;;3.65;;
37517;SDS011;23366;52.498;13.446;2023-07-22T02:07:35;4.25;;;3.85;;
37517;SDS011;23366;52.498;13.446;2023-07-22T02:10:00;5.30;;;3.80;;
37517;SDS011;23366;52.498;13.446;2023-07-22T02:12:26;4.45;;;3.25;;
37517;SDS011;23366;52.498;13.446;2023-07-22T02:14:51;4.22;;;3.65;;
37517;SDS011;23366;52.498;13.446;2023-07-22T02:17:17;5.93;;;3.35;;
37517;SDS011;23366;52.498;13.446;2023-07-22T02:19:42;4.20;;;3.45;;
37517;SDS011;23366;52.498;13.446;2023-07-22T02:22:08;4.97;;;3.92;;
37517;SDS011;23366;52.498;13.446;2023-07-22T02:24:34;3.90;;;3.05;;
37517;SDS011;23366;52.498;13.446;2023-07-22T02:26:59;4.70;;;3.47;;
37517;SDS011;23366;52.498;13.446;2023-07-22T02:29:25;6.68;;;3.20;;
37517;SDS011;23366;52.498;13.446;2023-07-22T02:31:50;5.65;;;2.88;;
37517;SDS011;23366;52.498;13.446;2023-07-22T02:34:16;4.10;;;3.70;;
37517;SDS011;23366;52.498;13.446;2023-07-22T02:36:41;3.90;;;2.60;;
37517;SDS011;23366;52.498;13.446;2023-07-22T02:39:07;4.47;;;2.95;;
37517;SDS011;23366;52.498;13.446;2023-07-22T02:41:34;4.82;;;2.67;;
37517;SDS011;23366;52.498;13.446;2023-07-22T02:44:02;5.78;;;2.88;;
37517;SDS011;23366;52.498;13.446;2023-07-22T02:46:28;3.08;;;2.58;;
37517;SDS011;23366;52.498;13.446;2023-07-22T02:48:54;4.28;;;2.75;;
37517;SDS011;23366;52.498;13.446;2023-07-22T02:51:20;4.18;;;3.15;;
37517;SDS011;23366;52.498;13.446;2023-07-22T02:53:45;3.15;;;2.83;;
37517;SDS011;23366;52.498;13.446;2023-07-22T02:56:11;3.13;;;2.42;;
37517;SDS011;23366;52.498;13.446;2023-07-22T02:58:38;2.85;;;2.13;;
37517;SDS011;23366;52.498;13.446;2023-07-22T03:01:04;4.80;;;2.38;;
37517;SDS011;23366;52.498;13.446;2023-07-22T03:03:30;5.55;;;2.65;;
37517;SDS011;23366;52.498;13.446;2023-07-22T03:05:58;3.15;;;2.28;;
37517;SDS011;23366;52.498;13.446;2023-07-22T03:08:24;7.15;;;2.20;;
37517;SDS011;23366;52.498;13.446;2023-07-22T03:10:50;3.63;;;2.80;;
37517;SDS011;23366;52.498;13.446;2023-07-22T03:13:15;3.35;;;2.28;;
37517;SDS011;23366;52.498;13.446;2023-07-22T03:15:41;4.60;;;2.35;;
37517;SDS011;23366;52.498;13.446;2023-07-22T03:18:07;8.45;;;2.88;;
37517;SDS011;23366;52.498;13.446;2023-07-22T03:20:33;3.17;;;2.55;;
37517;SDS011;23366;52.498;13.446;2023-07-22T03:22:58;3.88;;;2.50;;
37517;SDS011;23366;52.498;13.446;2023-07-22T03:25:24;5.60;;;2.65;;
37517;SDS011;23366;52.498;13.446;2023-07-22T03:27:49;2.78;;;2.33;;
37517;SDS011;23366;52.498;13.446;2023-07-22T03:30:16;3.47;;;2.30;;
37517;SDS011;23366;52.498;13.446;2023-07-22T03:32:43;3.55;;;2.85;;
37517;SDS011;23366;52.498;13.446;2023-07-22T03:35:10;4.63;;;2.95;;
37517;SDS011;23366;52.498;13.446;2023-07-22T03:37:36;3.03;;;2.13;;
37517;SDS011;23366;52.498;13.446;2023-07-22T03:40:03;2.92;;;1.95;;
37517;SDS011;23366;52.498;13.446;2023-07-22T03:42:32;3.42;;;2.47;;
37517;SDS011;23366;52.498;13.446;2023-07-22T03:44:58;4.63;;;2.47;;
37517;SDS011;23366;52.498;13.446;2023-07-22T03:47:24;5.63;;;2.72;;
37517;SDS011;23366;52.498;13.446;2023-07-22T03:49:49;3.13;;;2.38;;
37517;SDS011;23366;52.498;13.446;2023-07-22T03:52:15;3.92;;;2.88;;
37517;SDS011;23366;52.498;13.446;2023-07-22T03:54:43;3.05;;;2.53;;
37517;SDS011;23366;52.498;13.446;2023-07-22T03:57:09;4.43;;;3.20;;
37517;SDS011;23366;52.498;13.446;2023-07-22T03:59:34;4.40;;;3.45;;
37517;SDS011;23366;52.498;13.446;2023-07-22T04:02:00;2.83;;;2.13;;
37517;SDS011;23366;52.498;13.446;2023-07-22T04:04:25;3.47;;;2.40;;
37517;SDS011;23366;52.498;13.446;2023-07-22T04:06:51;7.22;;;2.92;;
37517;SDS011;23366;52.498;13.446;2023-07-22T04:09:16;4.20;;;2.80;;
37517;SDS011;23366;52.498;13.446;2023-07-22T04:11:42;4.93;;;3.25;;
37517;SDS011;23366;52.498;13.446;2023-07-22T04:14:07;3.30;;;2.67;;
37517;SDS011;23366;52.498;13.446;2023-07-22T04:16:33;4.43;;;3.08;;
37517;SDS011;23366;52.498;13.446;2023-07-22T04:18:58;3.13;;;2.72;;
37517;SDS011;23366;52.498;13.446;2023-07-22T04:21:24;2.92;;;2.45;;
37517;SDS011;23366;52.498;13.446;2023-07-22T04:23:49;7.00;;;2.25;;
37517;SDS011;23366;52.498;13.446;2023-07-22T04:26:15;3.35;;;2.22;;
37517;SDS011;23366;52.498;13.446;2023-07-22T04:28:40;3.47;;;2.40;;
37517;SDS011;23366;52.498;13.446;2023-07-22T04:31:05;2.70;;;2.15;;
37517;SDS011;23366;52.498;13.446;2023-07-22T04:33:31;3.67;;;2.00;;
37517;SDS011;23366;52.498;13.446;2023-07-22T04:35:58;5.43;;;2.25;;
37517;SDS011;23366;52.498;13.446;2023-07-22T04:38:24;3.75;;;1.83;;
37517;SDS011;23366;52.498;13.446;2023-07-22T04:40:49;4.22;;;2.15;;
37517;SDS011;23366;52.498;13.446;2023-07-22T04:43:15;5.65;;;2.10;;
37517;SDS011;23366;52.498;13.446;2023-07-22T04:45:40;3.80;;;2.38;;
37517;SDS011;23366;52.498;13.446;2023-07-22T04:48:06;3.17;;;1.98;;
37517;SDS011;23366;52.498;13.446;2023-07-22T04:50:32;2.22;;;1.50;;
37517;SDS011;23366;52.498;13.446;2023-07-22T04:52:58;3.90;;;2.38;;
37517;SDS011;23366;52.498;13.446;2023-07-22T04:55:23;2.33;;;1.80;;
37517;SDS011;23366;52.498;13.446;2023-07-22T04:57:49;3.55;;;2.38;;
37517;SDS011;23366;52.498;13.446;2023-07-22T05:00:16;3.22;;;1.98;;
37517;SDS011;23366;52.498;13.446;2023-07-22T05:02:44;3.10;;;2.55;;
37517;SDS011;23366;52.498;13.446;2023-07-22T05:05:10;2.15;;;1.80;;
37517;SDS011;23366;52.498;13.446;2023-07-22T05:07:39;4.43;;;2.25;;
37517;SDS011;23366;52.498;13.446;2023-07-22T05:10:06;2.45;;;1.83;;
37517;SDS011;23366;52.498;13.446;2023-07-22T05:15:02;3.47;;;1.90;;
37517;SDS011;23366;52.498;13.446;2023-07-22T05:17:28;3.67;;;1.90;;
37517;SDS011;23366;52.498;13.446;2023-07-22T05:19:56;3.00;;;1.67;;
37517;SDS011;23366;52.498;13.446;2023-07-22T05:22:21;2.15;;;1.38;;
37517;SDS011;23366;52.498;13.446;2023-07-22T05:24:47;2.45;;;1.77;;
37517;SDS011;23366;52.498;13.446;2023-07-22T05:27:12;1.95;;;1.23;;
37517;SDS011;23366;52.498;13.446;2023-07-22T05:29:37;3.80;;;2.17;;
37517;SDS011;23366;52.498;13.446;2023-07-22T05:32:03;7.25;;;1.52;;
37517;SDS011;23366;52.498;13.446;2023-07-22T05:34:29;3.15;;;1.92;;
37517;SDS011;23366;52.498;13.446;2023-07-22T05:36:54;3.83;;;1.65;;
37517;SDS011;23366;52.498;13.446;2023-07-22T05:39:20;2.88;;;1.98;;
37517;SDS011;23366;52.498;13.446;2023-07-22T05:41:45;2.13;;;1.33;;
37517;SDS011;23366;52.498;13.446;2023-07-22T05:44:10;2.97;;;1.55;;
37517;SDS011;23366;52.498;13.446;2023-07-22T05:46:36;3.92;;;1.80;;
37517;SDS011;23366;52.498;13.446;2023-07-22T05:49:03;3.78;;;2.25;;
37517;SDS011;23366;52.498;13.446;2023-07-22T05:51:28;4.72;;;1.88;;
37517;SDS011;23366;52.498;13.446;2023-07-22T05:53:54;6.57;;;2.88;;
37517;SDS011;23366;52.498;13.446;2023-07-22T05:56:20;4.80;;;2.67;;
37517;SDS011;23366;52.498;13.446;2023-07-22T05:58:45;3.40;;;2.53;;
37517;SDS011;23366;52.498;13.446;2023-07-22T06:01:11;3.80;;;2.95;;
37517;SDS011;23366;52.498;13.446;2023-07-22T06:03:37;3.65;;;2.67;;
37517;SDS011;23366;52.498;13.446;2023-07-22T06:06:03;5.15;;;2.85;;
37517;SDS011;23366;52.498;13.446;2023-07-22T06:08:29;2.97;;;2.28;;
37517;SDS011;23366;52.498;13.446;2023-07-22T06:10:54;4.68;;;2.50;;
37517;SDS011;23366;52.498;13.446;2023-07-22T06:13:21;3.92;;;2.58;;
37517;SDS011;23366;52.498;13.446;2023-07-22T06:15:47;6.35;;;2.53;;
37517;SDS011;23366;52.498;13.446;2023-07-22T06:18:12;6.97;;;3.13;;
37517;SDS011;23366;52.498;13.446;2023-07-22T06:20:38;3.67;;;2.28;;
37517;SDS011;23366;52.498;13.446;2023-07-22T06:23:03;3.38;;;1.95;;
37517;SDS011;23366;52.498;13.446;2023-07-22T06:25:29;3.17;;;2.25;;
37517;SDS011;23366;52.498;13.446;2023-07-22T06:27:54;4.20;;;2.30;;
37517;SDS011;23366;52.498;13.446;2023-07-22T06:30:20;3.60;;;2.15;;
37517;SDS011;23366;52.498;13.446;2023-07-22T06:32:46;3.75;;;1.98;;
37517;SDS011;23366;52.498;13.446;2023-07-22T06:35:11;7.82;;;2.03;;
37517;SDS011;23366;52.498;13.446;2023-07-22T06:37:37;4.95;;;1.65;;
37517;SDS011;23366;52.498;13.446;2023-07-22T06:40:03;3.53;;;2.15;;
37517;SDS011;23366;52.498;13.446;2023-07-22T06:42:29;3.13;;;2.13;;
37517;SDS011;23366;52.498;13.446;2023-07-22T06:44:55;4.55;;;2.13;;
37517;SDS011;23366;52.498;13.446;2023-07-22T06:47:20;6.90;;;1.90;;
37517;SDS011;23366;52.498;13.446;2023-07-22T06:49:46;3.70;;;2.35;;
37517;SDS011;23366;52.498;13.446;2023-07-22T06:52:11;1.83;;;1.20;;
37517;SDS011;23366;52.498;13.446;2023-07-22T06:54:37;2.78;;;2.20;;
37517;SDS011;23366;52.498;13.446;2023-07-22T06:57:02;4.60;;;1.85;;
37517;SDS011;23366;52.498;13.446;2023-07-22T06:59:28;3.42;;;1.80;;
37517;SDS011;23366;52.498;13.446;2023-07-22T07:01:53;3.40;;;2.05;;
37517;SDS011;23366;52.498;13.446;2023-07-22T07:04:19;3.65;;;1.80;;
37517;SDS011;23366;52.498;13.446;2023-07-22T07:06:45;3.10;;;2.00;;
37517;SDS011;23366;52.498;13.446;2023-07-22T07:09:11;3.47;;;1.75;;
37517;SDS011;23366;52.498;13.446;2023-07-22T07:11:37;4.88;;;1.65;;
37517;SDS011;23366;52.498;13.446;2023-07-22T07:14:02;2.70;;;1.38;;
37517;SDS011;23366;52.498;13.446;2023-07-22T07:16:29;2.15;;;1.50;;
37517;SDS011;23366;52.498;13.446;2023-07-22T07:18:56;5.82;;;2.20;;
37517;SDS011;23366;52.498;13.446;2023-07-22T07:21:22;5.22;;;1.45;;
37517;SDS011;23366;52.498;13.446;2023-07-22T07:23:48;3.17;;;1.60;;
37517;SDS011;23366;52.498;13.446;2023-07-22T07:26:14;1.75;;;0.90;;
37517;SDS011;23366;52.498;13.446;2023-07-22T07:28:39;3.92;;;1.25;;
37517;SDS011;23366;52.498;13.446;2023-07-22T07:31:06;2.40;;;1.25;;
37517;SDS011;23366;52.498;13.446;2023-07-22T07:33:32;3.45;;;1.50;;
37517;SDS011;23366;52.498;13.446;2023-07-22T07:35:58;2.17;;;1.25;;
37517;SDS011;23366;52.498;13.446;2023-07-22T07:38:24;2.58;;;1.85;;
37517;SDS011;23366;52.498;13.446;2023-07-22T07:40:55;3.10;;;1.95;;
37517;SDS011;23366;52.498;13.446;2023-07-22T07:43:21;2.55;;;1.83;;
37517;SDS011;23366;52.498;13.446;2023-07-22T07:45:47;11.18;;;5.95;;
37517;SDS011;23366;52.498;13.446;2023-07-22T07:48:12;5.82;;;2.80;;
37517;SDS011;23366;52.498;13.446;2023-07-22T07:50:38;8.82;;;1.80;;
37517;SDS011;23366;52.498;13.446;2023-07-22T07:53:03;12.82;;;5.38;;
37517;SDS011;23366;52.498;13.446;2023-07-22T07:55:29;4.15;;;1.73;;
37517;SDS011;23366;52.498;13.446;2023-07-22T07:57:54;4.35;;;2.08;;
37517;SDS011;23366;52.498;13.446;2023-07-22T08:00:22;2.92;;;1.58;;
37517;SDS011;23366;52.498;13.446;2023-07-22T08:02:48;4.38;;;2.40;;
37517;SDS011;23366;52.498;13.446;2023-07-22T08:05:13;4.32;;;1.42;;
37517;SDS011;23366;52.498;13.446;2023-07-22T08:07:39;2.85;;;1.75;;
37517;SDS011;23366;52.498;13.446;2023-07-22T08:10:05;3.15;;;1.65;;
37517;SDS011;23366;52.498;13.446;2023-07-22T08:12:32;4.32;;;1.90;;
37517;SDS011;23366;52.498;13.446;2023-07-22T08:14:58;3.65;;;2.05;;
37517;SDS011;23366;52.498;13.446;2023-07-22T08:17:24;3.70;;;2.13;;
37517;SDS011;23366;52.498;13.446;2023-07-22T08:19:49;4.78;;;2.03;;
37517;SDS011;23366;52.498;13.446;2023-07-22T08:22:16;3.03;;;1.83;;
37517;SDS011;23366;52.498;13.446;2023-07-22T08:24:42;4.38;;;2.35;;
37517;SDS011;23366;52.498;13.446;2023-07-22T08:27:08;2.67;;;1.92;;
37517;SDS011;23366;52.498;13.446;2023-07-22T08:29:34;3.45;;;1.70;;
37517;SDS011;23366;52.498;13.446;2023-07-22T08:31:59;3.45;;;1.65;;
37517;SDS011;23366;52.498;13.446;2023-07-22T08:34:25;2.88;;;1.60;;
37517;SDS011;23366;52.498;13.446;2023-07-22T08:36:51;4.75;;;1.95;;
37517;SDS011;23366;52.498;13.446;2023-07-22T08:39:17;3.75;;;2.60;;
37517;SDS011;23366;52.498;13.446;2023-07-22T08:41:44;2.03;;;1.52;;
37517;SDS011;23366;52.498;13.446;2023-07-22T08:44:19;10.77;;;2.13;;
37517;SDS011;23366;52.498;13.446;2023-07-22T08:46:46;2.60;;;1.80;;
37517;SDS011;23366;52.498;13.446;2023-07-22T08:49:14;2.70;;;1.60;;
37517;SDS011;23366;52.498;13.446;2023-07-22T08:51:40;4.57;;;2.08;;
37517;SDS011;23366;52.498;13.446;2023-07-22T08:54:06;5.82;;;2.83;;
37517;SDS011;23366;52.498;13.446;2023-07-22T08:56:33;5.50;;;2.30;;
37517;SDS011;23366;52.498;13.446;2023-07-22T08:59:00;4.70;;;2.35;;
37517;SDS011;23366;52.498;13.446;2023-07-22T09:01:26;5.47;;;2.67;;
37517;SDS011;23366;52.498;13.446;2023-07-22T09:03:51;4.38;;;2.65;;
37517;SDS011;23366;52.498;13.446;2023-07-22T09:06:19;5.45;;;2.90;;
37517;SDS011;23366;52.498;13.446;2023-07-22T09:08:45;5.18;;;2.53;;
37517;SDS011;23366;52.498;13.446;2023-07-22T09:11:11;3.38;;;1.70;;
37517;SDS011;23366;52.498;13.446;2023-07-22T09:13:36;4.22;;;2.30;;
37517;SDS011;23366;52.498;13.446;2023-07-22T09:16:04;3.42;;;1.63;;
37517;SDS011;23366;52.498;13.446;2023-07-22T09:18:32;4.35;;;3.20;;
37517;SDS011;23366;52.498;13.446;2023-07-22T09:20:58;6.20;;;1.95;;
37517;SDS011;23366;52.498;13.446;2023-07-22T09:23:33;3.72;;;2.00;;
37517;SDS011;23366;52.498;13.446;2023-07-22T09:26:09;3.70;;;1.90;;
37517;SDS011;23366;52.498;13.446;2023-07-22T09:28:49;4.18;;;2.10;;
37517;SDS011;23366;52.498;13.446;2023-07-22T09:31:15;2.83;;;1.92;;
37517;SDS011;23366;52.498;13.446;2023-07-22T09:33:41;2.22;;;1.70;;
37517;SDS011;23366;52.498;13.446;2023-07-22T09:36:06;3.08;;;1.65;;
37517;SDS011;23366;52.498;13.446;2023-07-22T09:38:32;4.00;;;2.35;;
37517;SDS011;23366;52.498;13.446;2023-07-22T09:40:57;2.53;;;1.45;;
37517;SDS011;23366;52.498;13.446;2023-07-22T09:43:23;3.28;;;1.85;;
37517;SDS011;23366;52.498;13.446;2023-07-22T09:45:49;5.13;;;2.47;;
37517;SDS011;23366;52.498;13.446;2023-07-22T09:48:15;3.63;;;1.70;;
37517;SDS011;23366;52.498;13.446;2023-07-22T09:50:40;2.88;;;1.30;;
37517;SDS011;23366;52.498;13.446;2023-07-22T09:53:06;2.08;;;1.33;;
37517;SDS011;23366;52.498;13.446;2023-07-22T09:55:32;3.63;;;1.92;;
37517;SDS011;23366;52.498;13.446;2023-07-22T09:58:01;4.85;;;1.60;;
37517;SDS011;23366;52.498;13.446;2023-07-22T10:00:28;4.22;;;1.58;;
37517;SDS011;23366;52.498;13.446;2023-07-22T10:02:56;5.15;;;2.05;;
37517;SDS011;23366;52.498;13.446;2023-07-22T10:05:24;2.50;;;1.67;;
37517;SDS011;23366;52.498;13.446;2023-07-22T10:07:51;4.30;;;2.00;;
37517;SDS011;23366;52.498;13.446;2023-07-22T10:10:19;4.60;;;1.83;;
37517;SDS011;23366;52.498;13.446;2023-07-22T10:12:46;3.10;;;1.65;;
37517;SDS011;23366;52.498;13.446;2023-07-22T10:15:12;2.83;;;2.22;;
37517;SDS011;23366;52.498;13.446;2023-07-22T10:17:40;3.60;;;2.47;;
37517;SDS011;23366;52.498;13.446;2023-07-22T10:20:06;4.78;;;2.35;;
37517;SDS011;23366;52.498;13.446;2023-07-22T10:22:40;4.85;;;2.20;;
37517;SDS011;23366;52.498;13.446;2023-07-22T10:25:07;2.78;;;1.55;;
37517;SDS011;23366;52.498;13.446;2023-07-22T10:27:34;3.45;;;1.85;;
37517;SDS011;23366;52.498;13.446;2023-07-22T10:30:05;4.53;;;1.55;;
37517;SDS011;23366;52.498;13.446;2023-07-22T10:32:33;1.75;;;1.52;;
37517;SDS011;23366;52.498;13.446;2023-07-22T10:35:01;4.10;;;2.35;;
37517;SDS011;23366;52.498;13.446;2023-07-22T10:37:30;3.75;;;2.20;;
37517;SDS011;23366;52.498;13.446;2023-07-22T10:45:24;2.67;;;1.88;;
37517;SDS011;23366;52.498;13.446;2023-07-22T10:48:05;2.80;;;1.83;;
37517;SDS011;23366;52.498;13.446;2023-07-22T10:50:39;2.92;;;1.77;;
37517;SDS011;23366;52.498;13.446;2023-07-22T10:53:05;3.00;;;1.88;;
37517;SDS011;23366;52.498;13.446;2023-07-22T10:55:33;2.20;;;1.65;;
37517;SDS011;23366;52.498;13.446;2023-07-22T10:58:19;3.33;;;2.03;;
37517;SDS011;23366;52.498;13.446;2023-07-22T11:00:45;3.47;;;1.75;;
37517;SDS011;23366;52.498;13.446;2023-07-22T11:03:12;3.17;;;2.08;;
37517;SDS011;23366;52.498;13.446;2023-07-22T11:05:49;2.50;;;1.70;;
37517;SDS011;23366;52.498;13.446;2023-07-22T11:08:34;4.55;;;2.63;;
37517;SDS011;23366;52.498;13.446;2023-07-22T11:11:04;3.00;;;1.83;;
37517;SDS011;23366;52.498;13.446;2023-07-22T11:13:30;2.92;;;1.80;;
37517;SDS011;23366;52.498;13.446;2023-07-22T11:16:02;4.72;;;2.22;;
37517;SDS011;23366;52.498;13.446;2023-07-22T11:18:37;3.97;;;2.38;;
37517;SDS011;23366;52.498;13.446;2023-07-22T11:21:07;5.15;;;2.53;;
37517;SDS011;23366;52.498;13.446;2023-07-22T11:23:36;4.97;;;2.70;;
37517;SDS011;23366;52.498;13.446;2023-07-22T11:26:02;6.43;;;2.15;;
37517;SDS011;23366;52.498;13.446;2023-07-22T11:28:29;6.07;;;2.38;;
37517;SDS011;23366;52.498;13.446;2023-07-22T11:30:55;3.83;;;2.00;;
37517;SDS011;23366;52.498;13.446;2023-07-22T11:33:21;3.63;;;2.65;;
37517;SDS011;23366;52.498;13.446;2023-07-22T11:35:47;3.38;;;1.83;;
37517;SDS011;23366;52.498;13.446;2023-07-22T11:38:12;4.55;;;2.63;;
37517;SDS011;23366;52.498;13.446;2023-07-22T11:40:37;2.92;;;2.60;;
37517;SDS011;23366;52.498;13.446;2023-07-22T11:43:03;3.15;;;2.05;;
37517;SDS011;23366;52.498;13.446;2023-07-22T11:45:29;3.88;;;2.42;;
37517;SDS011;23366;52.498;13.446;2023-07-22T11:47:56;4.40;;;2.45;;
37517;SDS011;23366;52.498;13.446;2023-07-22T11:50:33;2.58;;;1.70;;
37517;SDS011;23366;52.498;13.446;2023-07-22T11:52:59;4.47;;;2.50;;
37517;SDS011;23366;52.498;13.446;2023-07-22T11:55:25;4.68;;;1.90;;
37517;SDS011;23366;52.498;13.446;2023-07-22T11:57:54;11.02;;;2.50;;
37517;SDS011;23366;52.498;13.446;2023-07-22T12:00:20;4.20;;;2.10;;
37517;SDS011;23366;52.498;13.446;2023-07-22T12:02:46;4.05;;;2.35;;
37517;SDS011;23366;52.498;13.446;2023-07-22T12:05:12;3.20;;;2.20;;
37517;SDS011;23366;52.498;13.446;2023-07-22T12:07:46;3.85;;;2.60;;
37517;SDS011;23366;52.498;13.446;2023-07-22T12:10:12;3.30;;;2.40;;
37517;SDS011;23366;52.498;13.446;2023-07-22T12:12:44;3.47;;;2.20;;
37517;SDS011;23366;52.498;13.446;2023-07-22T12:15:20;5.38;;;2.25;;
37517;SDS011;23366;52.498;13.446;2023-07-22T12:17:48;4.40;;;2.38;;
37517;SDS011;23366;52.498;13.446;2023-07-22T12:20:17;4.07;;;2.50;;
37517;SDS011;23366;52.498;13.446;2023-07-22T12:22:44;2.80;;;1.90;;
37517;SDS011;23366;52.498;13.446;2023-07-22T12:25:09;4.07;;;2.45;;
37517;SDS011;23366;52.498;13.446;2023-07-22T12:27:36;4.03;;;2.38;;
37517;SDS011;23366;52.498;13.446;2023-07-22T12:30:02;5.28;;;2.40;;
37517;SDS011;23366;52.498;13.446;2023-07-22T12:32:28;3.63;;;1.88;;
37517;SDS011;23366;52.498;13.446;2023-07-22T12:34:53;4.35;;;2.58;;
37517;SDS011;23366;52.498;13.446;2023-07-22T12:37:19;5.45;;;2.92;;
37517;SDS011;23366;52.498;13.446;2023-07-22T12:39:44;5.35;;;2.65;;
37517;SDS011;23366;52.498;13.446;2023-07-22T12:42:10;4.85;;;2.08;;
37517;SDS011;23366;52.498;13.446;2023-07-22T12:44:35;4.63;;;1.95;;
37517;SDS011;23366;52.498;13.446;2023-07-22T12:47:01;3.78;;;2.40;;
37517;SDS011;23366;52.498;13.446;2023-07-22T12:49:27;3.40;;;1.95;;
37517;SDS011;23366;52.498;13.446;2023-07-22T12:51:52;2.55;;;1.77;;
37517;SDS011;23366;52.498;13.446;2023-07-22T12:54:18;2.90;;;2.28;;
37517;SDS011;23366;52.498;13.446;2023-07-22T12:56:43;2.42;;;2.03;;
37517;SDS011;23366;52.498;13.446;2023-07-22T12:59:09;3.45;;;2.15;;
37517;SDS011;23366;52.498;13.446;2023-07-22T13:01:35;2.85;;;1.85;;
37517;SDS011;23366;52.498;13.446;2023-07-22T13:04:03;7.65;;;2.47;;
37517;SDS011;23366;52.498;13.446;2023-07-22T13:06:30;5.72;;;2.20;;
37517;SDS011;23366;52.498;13.446;2023-07-22T13:08:55;3.30;;;2.15;;
37517;SDS011;23366;52.498;13.446;2023-07-22T13:11:21;3.65;;;2.28;;
37517;SDS011;23366;52.498;13.446;2023-07-22T13:13:46;4.03;;;2.60;;
37517;SDS011;23366;52.498;13.446;2023-07-22T13:16:12;4.00;;;2.38;;
37517;SDS011;23366;52.498;13.446;2023-07-22T13:18:37;3.28;;;1.77;;
37517;SDS011;23366;52.498;13.446;2023-07-22T13:21:03;3.47;;;2.25;;
37517;SDS011;23366;52.498;13.446;2023-07-22T13:23:29;11.85;;;2.63;;
37517;SDS011;23366;52.498;13.446;2023-07-22T13:25:54;3.25;;;2.70;;
37517;SDS011;23366;52.498;13.446;2023-07-22T13:28:20;2.97;;;1.95;;
37517;SDS011;23366;52.498;13.446;2023-07-22T13:30:45;4.03;;;2.50;;
37517;SDS011;23366;52.498;13.446;2023-07-22T13:33:11;4.03;;;2.40;;
37517;SDS011;23366;52.498;13.446;2023-07-22T13:35:36;2.95;;;2.03;;
37517;SDS011;23366;52.498;13.446;2023-07-22T13:38:02;4.10;;;2.35;;
37517;SDS011;23366;52.498;13.446;2023-07-22T13:40:27;3.65;;;2.50;;
37517;SDS011;23366;52.498;13.446;2023-07-22T13:42:52;4.88;;;2.60;;
37517;SDS011;23366;52.498;13.446;2023-07-22T13:45:18;4.32;;;2.80;;
37517;SDS011;23366;52.498;13.446;2023-07-22T13:47:43;4.25;;;2.53;;
37517;SDS011;23366;52.498;13.446;2023-07-22T13:50:09;5.20;;;2.13;;
37517;SDS011;23366;52.498;13.446;2023-07-22T13:52:35;4.10;;;2.55;;
37517;SDS011;23366;52.498;13.446;2023-07-22T13:55:00;3.30;;;2.28;;
37517;SDS011;23366;52.498;13.446;2023-07-22T13:57:26;3.05;;;1.98;;
37517;SDS011;23366;52.498;13.446;2023-07-22T13:59:52;3.45;;;2.35;;
37517;SDS011;23366;52.498;13.446;2023-07-22T14:02:17;3.63;;;2.42;;
37517;SDS011;23366;52.498;13.446;2023-07-22T14:04:47;2.83;;;1.92;;
37517;SDS011;23366;52.498;13.446;2023-07-22T14:07:12;4.72;;;2.38;;
37517;SDS011;23366;52.498;13.446;2023-07-22T14:09:37;5.15;;;2.95;;
37517;SDS011;23366;52.498;13.446;2023-07-22T14:12:03;4.43;;;2.95;;
37517;SDS011;23366;52.498;13.446;2023-07-22T14:14:29;6.18;;;3.35;;
37517;SDS011;23366;52.498;13.446;2023-07-22T14:16:55;4.18;;;2.90;;
37517;SDS011;23366;52.498;13.446;2023-07-22T14:19:21;5.65;;;2.75;;
37517;SDS011;23366;52.498;13.446;2023-07-22T14:21:48;4.57;;;2.70;;
37517;SDS011;23366;52.498;13.446;2023-07-22T14:24:13;4.40;;;3.08;;
37517;SDS011;23366;52.498;13.446;2023-07-22T14:26:39;11.25;;;5.72;;
37517;SDS011;23366;52.498;13.446;2023-07-22T14:29:04;6.00;;;3.22;;
37517;SDS011;23366;52.498;13.446;2023-07-22T14:31:29;3.13;;;2.20;;
37517;SDS011;23366;52.498;13.446;2023-07-22T14:33:57;4.10;;;2.90;;
37517;SDS011;23366;52.498;13.446;2023-07-22T14:36:23;5.60;;;2.72;;